Time;durP1;ratioP1;P1;durP2;ratioP2;P2;SDS_P1;SDS_P2;PMS_P1;PMS_P2;Temp;Humidity;BMP_temperature;BMP_pressure;BME280_temperature;BME280_humidity;BME280_pressure;Samples;Min_cycle;Max_cycle;Signal;HPM_P1;HPM_P2
2022/12/24 00:01:18;;;;;;;49.45;28.33;;;;;;;6.01;66.81;94496.22;4165605;28;20087;-78
2022/12/24 00:03:20;;;;;;;44.42;25.80;;;;;;;5.93;67.26;94502.03;4169561;28;20057;-77
2022/12/24 00:05:22;;;;;;;41.38;26.00;;;;;;;5.90;67.03;94499.72;4170686;28;20582;-76
2022/12/24 00:07:24;;;;;;;49.67;27.90;;;;;;;5.77;67.46;94500.00;4172499;28;20064;-78
2022/12/24 00:09:26;;;;;;;58.20;32.45;;;;;;;5.72;68.23;94497.78;4142214;28;20548;-75
2022/12/24 00:11:28;;;;;;;49.15;30.27;;;;;;;5.75;68.23;94499.31;4155656;28;20057;-77
2022/12/24 00:13:30;;;;;;;49.58;29.42;;;;;;;5.79;67.85;94505.88;4157151;28;20160;-77
2022/12/24 00:15:31;;;;;;;48.13;27.83;;;;;;;5.71;67.67;94505.72;4175431;28;20053;-77
2022/12/24 00:17:33;;;;;;;39.95;24.58;;;;;;;5.69;68.16;94502.44;4163268;28;20050;-74
2022/12/24 00:19:35;;;;;;;51.67;28.60;;;;;;;5.70;68.23;94509.25;4169457;28;20404;-78
2022/12/24 00:21:36;;;;;;;51.33;29.02;;;;;;;5.70;68.52;94510.09;4177497;28;20079;-77
2022/12/24 00:23:39;;;;;;;44.55;27.08;;;;;;;5.71;68.35;94511.72;4177490;28;20097;-78
2022/12/24 00:25:40;;;;;;;49.10;27.80;;;;;;;5.78;67.94;94519.00;4160375;28;20084;-77
2022/12/24 00:27:42;;;;;;;49.60;27.58;;;;;;;5.78;68.14;94506.81;4176328;28;20069;-77
2022/12/24 00:29:44;;;;;;;43.28;25.10;;;;;;;5.77;67.70;94504.38;4168559;28;20057;-78
2022/12/24 00:31:46;;;;;;;44.47;26.80;;;;;;;5.73;67.69;94499.44;4180143;28;20052;-76
2022/12/24 00:33:48;;;;;;;44.60;25.63;;;;;;;5.75;67.92;94502.72;4167551;28;20081;-75
2022/12/24 00:35:51;;;;;;;41.10;25.48;;;;;;;5.75;68.01;94499.31;4162449;28;20060;-76
2022/12/24 00:37:53;;;;;;;41.25;25.35;;;;;;;5.73;67.40;94499.44;4174507;28;20118;-77
2022/12/24 00:39:55;;;;;;;45.45;25.38;;;;;;;5.82;68.22;94508.19;4162947;28;20060;-78
2022/12/24 00:41:56;;;;;;;40.50;24.20;;;;;;;5.79;67.40;94508.47;4170772;28;20049;-78
2022/12/24 00:44:00;;;;;;;46.97;26.27;;;;;;;5.73;67.78;94502.03;4171169;28;20060;-79
2022/12/24 00:46:02;;;;;;;43.97;26.15;;;;;;;5.72;68.18;94500.41;4145995;28;20108;-77
2022/12/24 00:48:04;;;;;;;48.33;27.17;;;;;;;5.73;67.60;94496.81;4160994;28;20068;-77
2022/12/24 00:50:06;;;;;;;41.42;25.15;;;;;;;5.70;67.45;94501.47;4149035;28;20516;-76
2022/12/24 00:52:08;;;;;;;45.88;26.55;;;;;;;5.73;67.25;94507.22;4170320;28;20086;-78
2022/12/24 00:54:10;;;;;;;42.40;26.70;;;;;;;5.70;67.23;94502.31;4174663;28;20145;-76
2022/12/24 00:56:12;;;;;;;44.05;28.05;;;;;;;5.69;67.31;94507.63;4169970;28;20061;-77
2022/12/24 00:58:14;;;;;;;51.00;28.20;;;;;;;5.70;67.65;94504.91;4175997;28;20463;-76
2022/12/24 01:00:16;;;;;;;48.00;28.17;;;;;;;5.82;67.92;94508.19;4176359;28;20049;-77
2022/12/24 01:02:18;;;;;;;44.13;26.52;;;;;;;5.80;67.79;94515.31;4167625;28;20059;-76
2022/12/24 01:06:41;;;;;;;45.47;27.02;;;;;;;5.81;67.46;94508.31;4172812;28;20053;-75
2022/12/24 01:08:43;;;;;;;48.15;26.60;;;;;;;5.82;67.60;94507.38;4179091;28;20061;-77
2022/12/24 01:10:44;;;;;;;45.10;26.23;;;;;;;5.89;67.63;94509.31;4177417;28;20412;-78
2022/12/24 01:12:46;;;;;;;46.45;26.27;;;;;;;5.94;67.63;94517.56;4169280;28;20472;-79
2022/12/24 01:14:48;;;;;;;47.03;27.15;;;;;;;6.03;67.01;94520.31;4159409;28;20572;-76
2022/12/24 01:16:50;;;;;;;43.58;25.55;;;;;;;6.04;66.63;94522.75;4168033;28;20079;-77
2022/12/24 01:18:52;;;;;;;43.63;25.40;;;;;;;6.03;67.07;94517.69;4175057;28;20444;-77
2022/12/24 01:21:00;;;;;;;36.70;23.13;;;;;;;6.06;67.15;94518.22;4178814;28;20045;-77
2022/12/24 01:23:02;;;;;;;39.38;24.42;;;;;;;6.02;66.68;94509.06;4178523;28;20524;-76
2022/12/24 01:25:04;;;;;;;39.88;23.83;;;;;;;6.02;66.33;94500.44;4178320;28;20056;-78
2022/12/24 01:27:05;;;;;;;45.85;26.20;;;;;;;5.88;66.26;94496.44;4176155;28;20475;-78
2022/12/24 01:29:07;;;;;;;42.30;24.77;;;;;;;5.73;67.11;94491.63;4178041;28;20052;-76
2022/12/24 01:31:13;;;;;;;43.35;26.10;;;;;;;5.52;66.26;94496.09;4178181;28;20427;-77
2022/12/24 01:33:16;;;;;;;46.15;26.27;;;;;;;5.38;67.65;94499.06;4170906;28;20063;-76
2022/12/24 01:35:17;;;;;;;47.08;27.70;;;;;;;5.27;68.26;94502.56;4173434;28;20057;-78
2022/12/24 01:37:19;;;;;;;43.55;26.45;;;;;;;5.27;68.61;94512.97;4174852;28;20093;-76
2022/12/24 01:39:21;;;;;;;47.03;28.10;;;;;;;5.16;67.91;94511.28;4178850;28;20452;-77
2022/12/24 01:43:44;;;;;;;50.63;27.63;;;;;;;4.98;69.03;94513.69;4163622;28;20073;-77
2022/12/24 01:45:47;;;;;;;51.90;28.48;;;;;;;4.74;69.69;94513.97;4179197;28;20051;-76
2022/12/24 01:47:49;;;;;;;43.60;26.60;;;;;;;4.60;70.64;94503.91;4167806;28;20061;-79
2022/12/24 01:49:56;;;;;;;46.03;26.58;;;;;;;4.45;70.66;94496.47;4174838;28;20049;-77
2022/12/24 01:52:02;;;;;;;44.42;27.13;;;;;;;4.33;72.30;94501.84;4147600;28;20097;-77
2022/12/24 01:54:07;;;;;;;45.28;27.63;;;;;;;4.49;72.09;94508.22;4153352;28;20120;-77
2022/12/24 01:56:09;;;;;;;43.08;25.73;;;;;;;4.60;71.26;94504.72;4152641;28;20507;-77
2022/12/24 01:58:13;;;;;;;45.70;26.50;;;;;;;4.68;70.85;94504.91;4178313;28;20061;-81
2022/12/24 02:00:15;;;;;;;46.75;24.45;;;;;;;4.85;70.90;94503.50;4171771;28;20115;-80
2022/12/24 02:02:18;;;;;;;41.92;24.90;;;;;;;5.01;70.43;94499.63;4172955;28;20053;-78
2022/12/24 02:04:24;;;;;;;42.10;24.83;;;;;;;5.08;69.33;94498.97;4167951;28;20128;-79
2022/12/24 02:06:26;;;;;;;43.05;27.13;;;;;;;5.04;69.42;94488.97;4172997;28;20420;-75
2022/12/24 02:08:38;;;;;;;43.55;26.80;;;;;;;5.06;69.28;94494.88;4177195;28;20484;-77
2022/12/24 02:10:41;;;;;;;41.90;25.42;;;;;;;5.08;68.61;94490.38;4173166;28;20111;-78
2022/12/24 02:12:43;;;;;;;40.75;26.40;;;;;;;5.02;68.68;94489.09;4177539;28;20061;-77
2022/12/24 02:14:45;;;;;;;44.20;25.88;;;;;;;5.11;68.90;94487.50;4160349;28;20081;-77
2022/12/24 02:16:56;;;;;;;43.65;24.88;;;;;;;5.15;69.42;94488.88;4169107;28;20057;-77
2022/12/24 02:19:10;;;;;;;47.60;25.45;;;;;;;5.15;69.00;94494.06;4174381;28;20072;-77
2022/12/24 02:21:21;;;;;;;42.03;24.95;;;;;;;5.16;68.38;94498.31;4177538;28;20048;-77
2022/12/24 02:23:56;;;;;;;43.95;24.85;;;;;;;5.24;67.98;94497.66;4177953;28;20116;-76
2022/12/24 02:26:19;;;;;;;42.65;24.77;;;;;;;5.26;68.57;94509.56;4161592;28;20100;-78
2022/12/24 02:28:39;;;;;;;42.45;25.10;;;;;;;5.26;67.82;94501.75;4173028;28;20053;-76
2022/12/24 02:30:43;;;;;;;37.70;23.70;;;;;;;5.20;68.43;94494.50;4178089;28;20194;-78
2022/12/24 02:32:57;;;;;;;43.25;26.13;;;;;;;5.17;68.47;94501.75;4160547;28;20053;-77
2022/12/24 02:35:11;;;;;;;41.42;24.50;;;;;;;5.16;68.09;94497.50;4165293;28;20061;-78
2022/12/24 02:37:33;;;;;;;41.00;24.33;;;;;;;5.22;68.06;94500.38;4142288;28;20352;-77
2022/12/24 02:40:00;;;;;;;38.95;22.60;;;;;;;5.26;68.65;94496.56;4153514;28;20100;-78
2022/12/24 02:42:04;;;;;;;36.00;21.88;;;;;;;5.29;68.16;94496.31;4167718;28;20057;-78
2022/12/24 02:44:06;;;;;;;35.03;22.13;;;;;;;5.32;68.09;94501.25;4159735;28;20068;-77
2022/12/24 02:46:11;;;;;;;34.80;21.45;;;;;;;5.24;67.93;94488.09;4176311;28;20466;-77
2022/12/24 02:48:16;;;;;;;37.08;21.95;;;;;;;5.20;68.32;94491.09;4144509;28;20436;-77
2022/12/24 02:50:19;;;;;;;39.08;22.17;;;;;;;5.16;68.67;94484.50;4151350;28;20064;-77
2022/12/24 02:52:50;;;;;;;34.58;21.27;;;;;;;5.14;68.51;94482.03;4166272;28;20053;-77
2022/12/24 02:54:52;;;;;;;35.65;22.25;;;;;;;5.11;68.64;94477.94;4138995;28;20060;-76
2022/12/24 02:57:17;;;;;;;39.63;23.10;;;;;;;4.99;68.29;94478.16;4167999;28;20045;-76
2022/12/24 02:59:31;;;;;;;41.72;24.45;;;;;;;4.87;68.61;94462.66;4157038;28;20101;-80
2022/12/24 03:02:05;;;;;;;43.28;23.52;;;;;;;4.84;69.06;94469.88;4171493;28;20414;-76
2022/12/24 03:04:10;;;;;;;44.78;25.98;;;;;;;4.77;69.12;94484.34;4135345;28;20400;-76
2022/12/24 03:06:51;;;;;;;39.92;24.73;;;;;;;4.81;68.95;94476.16;4157915;28;20081;-77
2022/12/24 03:09:05;;;;;;;47.50;27.48;;;;;;;4.82;69.11;94480.41;4141902;28;20148;-76
2022/12/24 03:11:11;;;;;;;75.28;47.70;;;;;;;4.85;69.39;94472.34;4154470;28;20053;-76
2022/12/24 03:13:15;;;;;;;57.15;37.85;;;;;;;4.88;68.82;94473.88;4148612;28;20199;-77
2022/12/24 03:15:20;;;;;;;49.53;33.40;;;;;;;4.82;68.49;94467.44;4177038;28;20060;-77
2022/12/24 03:17:22;;;;;;;51.65;31.33;;;;;;;4.78;68.93;94466.06;4176558;28;20512;-77
2022/12/24 03:19:25;;;;;;;44.17;27.52;;;;;;;4.83;68.75;94476.03;4159320;28;20057;-77
2022/12/24 03:21:30;;;;;;;35.38;24.20;;;;;;;4.89;68.78;94478.94;4176420;28;20484;-77
2022/12/24 03:23:33;;;;;;;36.65;22.73;;;;;;;4.90;68.14;94471.97;4159201;28;20320;-78
2022/12/24 03:25:38;;;;;;;35.25;23.77;;;;;;;4.86;67.82;94474.03;4158126;28;20068;-78
2022/12/24 03:27:41;;;;;;;40.03;25.05;;;;;;;4.83;68.63;94470.84;4158642;28;20509;-78
2022/12/24 03:29:43;;;;;;;43.65;24.48;;;;;;;4.75;68.46;94470.66;4158321;28;20478;-77
2022/12/24 03:31:49;;;;;;;43.42;24.50;;;;;;;4.76;68.75;94480.94;4164138;28;20053;-77
2022/12/24 03:33:51;;;;;;;37.50;23.50;;;;;;;4.72;68.94;94475.16;4194887;28;20049;-87
2022/12/24 03:35:53;;;;;;;37.90;22.88;;;;;;;4.76;68.72;94469.75;4158766;28;20212;-77
2022/12/24 03:37:55;;;;;;;35.65;22.15;;;;;;;4.80;68.24;94471.13;4175750;28;20416;-75
2022/12/24 03:39:57;;;;;;;37.63;21.67;;;;;;;4.81;68.13;94476.16;4162806;28;20527;-76
2022/12/24 03:41:59;;;;;;;35.10;21.80;;;;;;;4.80;68.60;94484.09;4165364;28;20049;-76
2022/12/24 03:44:00;;;;;;;38.67;22.33;;;;;;;4.74;68.12;94480.22;4176775;28;20053;-76
2022/12/24 03:46:05;;;;;;;39.40;24.20;;;;;;;4.47;68.31;94480.75;4176215;28;20094;-86
2022/12/24 03:48:07;;;;;;;39.00;25.23;;;;;;;4.31;69.23;94474.25;4131331;28;20402;-73
2022/12/24 03:50:09;;;;;;;46.38;25.27;;;;;;;4.29;69.79;94488.28;4176609;28;20464;-78
2022/12/24 03:52:10;;;;;;;47.22;26.38;;;;;;;4.19;69.70;94490.81;4157816;28;20049;-78
2022/12/24 03:54:12;;;;;;;44.97;27.40;;;;;;;4.25;69.95;94479.94;4156902;28;20054;-77
2022/12/24 03:56:14;;;;;;;49.35;29.73;;;;;;;4.37;70.03;94479.91;4172806;28;20457;-79
2022/12/24 03:58:16;;;;;;;48.25;28.75;;;;;;;4.45;69.87;94480.91;4176482;28;20073;-77
2022/12/24 04:00:18;;;;;;;48.08;29.10;;;;;;;4.50;69.35;94493.50;4175548;28;20057;-76
2022/12/24 04:02:20;;;;;;;54.25;31.10;;;;;;;4.44;68.69;94497.41;4172061;28;20056;-77
2022/12/24 04:04:22;;;;;;;58.78;33.30;;;;;;;4.38;68.88;94495.31;4166672;28;20134;-76
2022/12/24 04:06:23;;;;;;;56.55;31.67;;;;;;;4.41;69.70;94502.00;4164306;28;20489;-76
2022/12/24 04:08:25;;;;;;;58.28;32.97;;;;;;;4.26;69.86;94502.34;4173231;28;20091;-76
2022/12/24 04:10:27;;;;;;;52.90;31.65;;;;;;;4.29;69.27;94509.03;4172241;28;20412;-76
2022/12/24 04:12:28;;;;;;;42.58;25.65;;;;;;;3.91;69.66;94512.97;4172731;28;20053;-77
2022/12/24 04:14:30;;;;;;;48.08;27.15;;;;;;;3.90;70.53;94509.56;4176358;28;20189;-76
2022/12/24 04:16:32;;;;;;;45.72;27.80;;;;;;;4.02;70.62;94515.53;4176662;28;20049;-76
2022/12/24 04:18:34;;;;;;;38.85;23.85;;;;;;;4.05;70.19;94507.50;4166159;28;20104;-78
2022/12/24 04:20:36;;;;;;;41.88;25.38;;;;;;;4.15;69.64;94498.97;4173177;28;20057;-80
2022/12/24 04:22:38;;;;;;;42.70;24.58;;;;;;;4.26;69.89;94501.53;4172289;28;20088;-79
2022/12/24 04:24:40;;;;;;;40.60;24.02;;;;;;;4.30;69.45;94505.47;4155065;28;20097;-77
2022/12/24 04:26:42;;;;;;;43.38;23.80;;;;;;;4.34;69.66;94501.69;4176079;28;20061;-76
2022/12/24 04:28:43;;;;;;;35.58;22.83;;;;;;;4.42;69.62;94507.06;4161624;28;20054;-77
2022/12/24 04:30:45;;;;;;;38.25;23.60;;;;;;;4.40;69.31;94515.94;4159831;28;20057;-76
2022/12/24 04:32:47;;;;;;;38.85;23.15;;;;;;;4.41;69.44;94518.41;4142500;28;20050;-78
2022/12/24 04:34:48;;;;;;;42.53;25.58;;;;;;;4.39;68.91;94519.47;4171863;28;20406;-74
2022/12/24 04:36:50;;;;;;;42.65;23.33;;;;;;;4.42;68.34;94533.00;4173743;28;20149;-76
2022/12/24 04:38:52;;;;;;;37.40;22.00;;;;;;;4.11;69.42;94526.94;4160649;28;20429;-75
2022/12/24 04:40:59;;;;;;;35.17;20.80;;;;;;;3.90;70.32;94535.47;4162373;28;20060;-78
2022/12/24 04:43:00;;;;;;;32.42;19.42;;;;;;;3.81;70.60;94532.81;4176990;28;20132;-76
2022/12/24 04:45:03;;;;;;;30.95;18.58;;;;;;;3.82;71.30;94530.06;4166531;28;20048;-77
2022/12/24 04:47:04;;;;;;;31.42;19.80;;;;;;;3.96;71.68;94525.53;4178780;28;20160;-77
2022/12/24 04:49:06;;;;;;;32.53;19.90;;;;;;;4.04;70.73;94525.75;4168916;28;20087;-78
2022/12/24 04:51:08;;;;;;;29.45;19.90;;;;;;;4.17;70.67;94518.63;4164271;28;20061;-77
2022/12/24 04:53:13;;;;;;;39.28;23.30;;;;;;;4.22;70.16;94523.47;4164744;28;20050;-78
2022/12/24 04:55:15;;;;;;;35.83;22.77;;;;;;;4.23;70.23;94517.31;4168928;28;20141;-77
2022/12/24 04:57:17;;;;;;;34.45;21.58;;;;;;;4.20;70.16;94517.56;4170638;28;20119;-78
2022/12/24 04:59:18;;;;;;;36.70;21.80;;;;;;;4.20;70.87;94507.22;4178065;28;20064;-77
2022/12/24 05:01:25;;;;;;;37.63;23.15;;;;;;;4.24;70.33;94513.78;4171457;28;20142;-75
2022/12/24 05:03:27;;;;;;;38.40;22.52;;;;;;;4.23;70.10;94506.94;4179694;28;20064;-78
2022/12/24 05:05:29;;;;;;;35.08;21.63;;;;;;;4.30;70.50;94510.66;4174800;28;20084;-78
2022/12/24 05:07:33;;;;;;;35.50;20.88;;;;;;;4.28;71.04;94500.44;4173273;28;20119;-78
2022/12/24 05:09:35;;;;;;;35.45;21.02;;;;;;;4.33;70.06;94494.88;4154734;28;21150;-78
2022/12/24 05:11:36;;;;;;;33.38;20.77;;;;;;;4.34;69.81;94506.06;4165882;28;20074;-78
2022/12/24 05:13:39;;;;;;;31.95;20.10;;;;;;;4.31;69.84;94500.19;4172475;28;20091;-77
2022/12/24 05:15:47;;;;;;;31.30;20.00;;;;;;;4.25;69.87;94497.28;4164460;28;20065;-79
2022/12/24 05:17:50;;;;;;;35.13;20.33;;;;;;;4.29;69.74;94486.50;4163366;28;20104;-80
2022/12/24 05:19:51;;;;;;;34.45;22.40;;;;;;;4.35;69.90;94484.38;4170804;28;20134;-78
2022/12/24 05:26:38;;;;;;;28.38;18.40;;;;;;;4.34;69.65;94495.69;4179125;28;20127;-77
2022/12/24 05:28:40;;;;;;;32.25;18.90;;;;;;;4.39;69.88;94496.97;4165793;28;20049;-77
2022/12/24 05:30:42;;;;;;;29.05;17.75;;;;;;;4.44;69.56;94505.19;4175519;28;20057;-78
2022/12/24 05:32:43;;;;;;;29.50;18.35;;;;;;;4.47;68.90;94501.50;4171529;28;20136;-80
2022/12/24 05:34:45;;;;;;;33.45;19.30;;;;;;;4.49;68.62;94513.41;4162966;28;20057;-77
2022/12/24 05:36:47;;;;;;;31.20;18.40;;;;;;;4.51;69.24;94506.31;4144612;28;20563;-79
2022/12/24 05:38:49;;;;;;;28.15;17.67;;;;;;;4.60;68.97;94503.91;4177430;28;20341;-77
2022/12/24 05:40:51;;;;;;;28.85;18.15;;;;;;;4.68;68.48;94497.13;4178254;28;20057;-78
2022/12/24 05:42:52;;;;;;;29.58;17.52;;;;;;;4.69;68.88;94493.59;4178759;28;20210;-77
2022/12/24 05:44:54;;;;;;;25.70;17.67;;;;;;;4.75;68.50;94497.44;4178876;28;20449;-78
2022/12/24 05:46:56;;;;;;;43.85;26.58;;;;;;;4.67;68.69;94497.28;4160364;28;20167;-77
2022/12/24 05:48:58;;;;;;;42.40;26.25;;;;;;;4.60;68.90;94488.34;4178648;28;20048;-76
2022/12/24 05:51:04;;;;;;;36.50;22.73;;;;;;;4.66;68.55;94490.44;4164320;28;20111;-79
2022/12/24 05:53:07;;;;;;;37.20;21.83;;;;;;;4.66;68.52;94482.66;4160022;28;20339;-75
2022/12/24 05:55:09;;;;;;;43.67;24.73;;;;;;;4.70;68.99;94473.66;4177171;28;20065;-77
2022/12/24 05:57:10;;;;;;;38.03;22.98;;;;;;;4.75;68.97;94481.06;4171941;28;20063;-78
2022/12/24 05:59:12;;;;;;;35.50;20.73;;;;;;;4.72;67.94;94495.13;4176068;28;20057;-78
2022/12/24 06:01:14;;;;;;;30.90;19.98;;;;;;;4.69;68.08;94487.59;4178096;28;20067;-78
2022/12/24 06:03:16;;;;;;;39.13;21.77;;;;;;;4.67;68.58;94489.50;4166942;28;20412;-79
2022/12/24 06:05:18;;;;;;;46.83;29.92;;;;;;;4.64;68.85;94494.91;4175472;28;20056;-79
2022/12/24 06:07:20;;;;;;;52.83;31.80;;;;;;;4.54;68.91;94499.22;4175818;28;20058;-77
2022/12/24 06:09:22;;;;;;;60.60;33.13;;;;;;;4.53;68.90;94502.78;4175662;28;20061;-77
2022/12/24 06:11:25;;;;;;;55.08;30.13;;;;;;;4.47;69.36;94498.91;4167871;28;20053;-78
2022/12/24 06:13:28;;;;;;;49.55;26.30;;;;;;;4.45;69.01;94498.22;4169871;28;20061;-77
2022/12/24 06:15:29;;;;;;;40.75;22.83;;;;;;;3.90;69.88;94516.50;4160045;28;20446;-75
2022/12/24 06:17:32;;;;;;;32.17;20.73;;;;;;;3.57;71.73;94515.66;4162929;28;20053;-75
2022/12/24 06:19:34;;;;;;;39.75;23.20;;;;;;;3.41;72.74;94516.03;4161931;28;20095;-77
2022/12/24 06:21:35;;;;;;;38.03;23.58;;;;;;;3.37;73.14;94518.97;4169383;28;20164;-76
2022/12/24 06:23:39;;;;;;;36.97;22.45;;;;;;;3.49;73.25;94518.03;4177052;28;20064;-77
2022/12/24 06:25:41;;;;;;;40.75;24.40;;;;;;;3.65;72.85;94507.28;4175497;28;20057;-79
2022/12/24 06:27:42;;;;;;;42.70;23.88;;;;;;;3.83;72.43;94515.34;4177421;28;20103;-77
2022/12/24 06:29:44;;;;;;;41.25;24.17;;;;;;;4.08;71.74;94512.41;4178063;28;20053;-78
2022/12/24 06:31:46;;;;;;;43.72;25.50;;;;;;;4.36;70.46;94524.91;4160551;28;20464;-78
2022/12/24 06:33:48;;;;;;;38.67;24.00;;;;;;;4.91;69.42;94523.75;4181025;28;20088;-79
2022/12/24 06:35:50;;;;;;;41.60;23.50;;;;;;;5.12;67.53;94521.13;4162621;28;20068;-80
2022/12/24 06:37:51;;;;;;;41.22;23.73;;;;;;;5.21;67.19;94526.50;4178035;28;20135;-77
2022/12/24 06:39:53;;;;;;;38.70;23.77;;;;;;;5.30;67.30;94536.09;4176357;28;20057;-77
2022/12/24 06:41:55;;;;;;;37.50;23.70;;;;;;;5.37;67.03;94531.19;4162666;28;20061;-78
2022/12/24 06:43:57;;;;;;;37.65;22.52;;;;;;;5.39;66.58;94539.69;4163264;28;20479;-75
2022/12/24 06:45:59;;;;;;;38.05;21.90;;;;;;;5.42;66.88;94536.81;4162449;28;20534;-79
2022/12/24 06:48:01;;;;;;;39.80;22.65;;;;;;;5.48;66.70;94536.28;4176722;28;20122;-79
2022/12/24 06:50:03;;;;;;;40.08;23.45;;;;;;;5.47;66.55;94539.84;4164500;28;20061;-78
2022/12/24 06:52:05;;;;;;;41.72;22.98;;;;;;;5.50;67.32;94534.38;4163413;28;20071;-78
2022/12/24 06:54:07;;;;;;;40.95;22.75;;;;;;;5.47;67.30;94539.84;4164378;28;20061;-81
2022/12/24 06:56:12;;;;;;;34.53;21.65;;;;;;;5.56;66.85;94539.06;4164369;28;20130;-79
2022/12/24 06:58:13;;;;;;;36.78;22.10;;;;;;;5.59;67.04;94536.19;4174002;28;20154;-78
2022/12/24 07:00:16;;;;;;;34.35;22.25;;;;;;;5.56;67.08;94533.84;4163233;28;20064;-82
2022/12/24 07:02:17;;;;;;;36.72;20.85;;;;;;;5.63;67.23;94537.56;4176862;28;20084;-77
2022/12/24 07:04:19;;;;;;;40.65;21.80;;;;;;;5.68;67.35;94532.81;4177122;28;20407;-79
2022/12/24 07:06:27;;;;;;;37.88;23.73;;;;;;;5.77;67.21;94538.97;4173943;28;20053;-79
2022/12/24 07:08:32;;;;;;;45.63;23.85;;;;;;;5.82;65.99;94541.97;4176611;28;20060;-78
2022/12/24 07:10:35;;;;;;;45.83;24.52;;;;;;;5.84;66.01;94541.88;4172499;28;20277;-79
2022/12/24 07:12:37;;;;;;;41.80;24.97;;;;;;;5.87;65.96;94538.97;4177563;28;20095;-78
2022/12/24 07:14:39;;;;;;;43.85;25.90;;;;;;;5.85;65.86;94533.09;4177402;28;20057;-77
2022/12/24 07:16:40;;;;;;;41.17;25.75;;;;;;;5.90;65.67;94538.72;4177513;28;20061;-76
2022/12/24 07:18:43;;;;;;;43.75;25.73;;;;;;;5.90;66.00;94543.94;4177869;28;20156;-79
2022/12/24 07:20:44;;;;;;;43.53;26.42;;;;;;;5.88;66.04;94548.44;4176814;28;20088;-74
2022/12/24 07:22:46;;;;;;;48.92;28.40;;;;;;;5.82;65.70;94543.78;4177099;28;20037;-78
2022/12/24 07:24:48;;;;;;;46.58;27.90;;;;;;;5.81;66.25;94540.34;4176219;28;20481;-72
2022/12/24 07:26:50;;;;;;;46.42;29.45;;;;;;;5.79;66.26;94537.06;4163816;28;20594;-78
2022/12/24 07:28:52;;;;;;;60.78;32.53;;;;;;;5.80;66.19;94536.09;4176785;28;20063;-84
2022/12/24 07:30:55;;;;;;;51.45;30.48;;;;;;;5.79;66.05;94544.06;4161654;28;20447;-74
2022/12/24 07:32:57;;;;;;;50.17;30.63;;;;;;;5.77;66.56;94548.56;4179738;28;20049;-75
2022/12/24 07:34:59;;;;;;;46.58;29.23;;;;;;;5.88;66.51;94548.44;4177568;28;20083;-76
2022/12/24 07:37:00;;;;;;;49.08;29.05;;;;;;;5.92;66.06;94550.63;4177073;28;20081;-76
2022/12/24 07:39:02;;;;;;;52.85;29.55;;;;;;;5.98;66.48;94549.31;4177196;28;20048;-76
2022/12/24 07:41:04;;;;;;;46.15;29.70;;;;;;;5.98;66.15;94551.06;4174815;28;20198;-76
2022/12/24 07:43:06;;;;;;;46.13;29.27;;;;;;;5.83;66.19;94545.41;4170034;28;20057;-78
2022/12/24 07:45:09;;;;;;;52.88;29.95;;;;;;;5.84;66.25;94547.88;4174038;28;20392;-76
2022/12/24 07:47:11;;;;;;;50.47;30.42;;;;;;;5.91;66.68;94550.75;4145007;28;20141;-81
2022/12/24 07:49:12;;;;;;;47.25;30.27;;;;;;;6.04;66.10;94559.16;4166099;28;20116;-75
2022/12/24 07:51:14;;;;;;;48.72;29.63;;;;;;;6.12;66.07;94551.50;4168196;28;20049;-79
2022/12/24 07:53:16;;;;;;;51.17;30.13;;;;;;;6.19;65.95;94553.56;4172993;28;20079;-82
2022/12/24 07:55:18;;;;;;;52.28;30.45;;;;;;;6.19;66.28;94561.38;4171530;28;20096;-79
2022/12/24 07:57:20;;;;;;;45.67;28.58;;;;;;;6.21;66.56;94562.88;4172041;28;20465;-81
2022/12/24 07:59:21;;;;;;;52.10;30.75;;;;;;;6.32;66.36;94561.91;4139764;28;20057;-80
2022/12/24 08:01:23;;;;;;;53.85;31.30;;;;;;;6.46;66.16;94565.91;4166939;28;20524;-80
2022/12/24 08:03:26;;;;;;;51.72;30.33;;;;;;;6.54;66.12;94571.25;4173272;28;20413;-82
2022/12/24 08:05:33;;;;;;;50.38;30.60;;;;;;;6.57;66.38;94574.38;4164755;28;20053;-79
2022/12/24 08:07:35;;;;;;;52.40;31.67;;;;;;;6.57;66.98;94579.59;4148531;28;20157;-80
2022/12/24 08:09:37;;;;;;;52.60;30.15;;;;;;;6.61;65.94;94584.53;4166928;28;20118;-78
2022/12/24 08:11:39;;;;;;;47.28;28.20;;;;;;;6.59;65.40;94583.84;4169846;28;20045;-84
2022/12/24 08:13:46;;;;;;;50.88;29.77;;;;;;;6.56;65.45;94585.78;4167491;28;20452;-84
2022/12/24 08:15:48;;;;;;;50.65;29.77;;;;;;;6.61;65.44;94592.34;4155645;28;20520;-85
2022/12/24 08:17:50;;;;;;;50.80;28.90;;;;;;;6.68;65.83;94593.44;4165120;28;20056;-84
2022/12/24 08:19:52;;;;;;;43.45;28.65;;;;;;;6.67;65.15;94586.59;4151632;28;20477;-84
2022/12/24 08:21:54;;;;;;;46.25;27.48;;;;;;;6.63;66.04;94580.84;4152085;28;20084;-84
2022/12/24 08:23:56;;;;;;;44.13;27.38;;;;;;;6.68;65.60;94583.03;4171549;28;20059;-84
2022/12/24 08:25:58;;;;;;;43.40;26.08;;;;;;;6.72;65.53;94568.78;4173741;28;20154;-86
2022/12/24 08:27:59;;;;;;;44.50;27.25;;;;;;;6.78;65.76;94573.44;4153967;28;20075;-84
2022/12/24 08:30:03;;;;;;;44.00;26.08;;;;;;;6.80;65.57;94571.50;4155054;28;20074;-85
2022/12/24 08:32:04;;;;;;;48.95;27.83;;;;;;;6.88;65.57;94562.97;4176838;28;20056;-84
2022/12/24 08:34:07;;;;;;;40.13;25.42;;;;;;;6.90;65.51;94561.06;4172113;28;20152;-89
2022/12/24 08:36:09;;;;;;;48.63;28.63;;;;;;;6.96;65.20;94556.13;4141678;28;20057;-85
2022/12/24 08:38:11;;;;;;;50.80;27.75;;;;;;;7.05;65.62;94558.84;4154272;28;20377;-85
2022/12/24 08:40:13;;;;;;;42.92;26.98;;;;;;;7.00;64.80;94553.25;4174484;28;20098;-83
2022/12/24 08:42:50;;;;;;;43.53;26.58;;;;;;;6.98;64.43;94548.97;4169732;28;20053;-86
2022/12/24 08:45:40;;;;;;;45.25;27.00;;;;;;;7.01;65.30;94560.91;4147488;28;20064;-81
2022/12/24 08:47:49;;;;;;;41.85;25.33;;;;;;;6.76;65.27;94564.94;4182282;28;20112;-80
2022/12/24 08:49:51;;;;;;;41.92;25.13;;;;;;;6.78;66.01;94557.81;4175004;28;20118;-84
2022/12/24 08:51:53;;;;;;;40.08;24.05;;;;;;;6.76;65.81;94570.94;4151198;28;20054;-78
2022/12/24 08:53:55;;;;;;;39.05;24.10;;;;;;;6.61;65.55;94587.16;4182666;28;20084;-83
2022/12/24 08:56:04;;;;;;;37.58;24.15;;;;;;;6.60;65.82;94590.69;4169861;28;20064;-86
2022/12/24 08:58:06;;;;;;;43.53;24.55;;;;;;;6.52;66.45;94579.19;4174185;28;20060;-79
2022/12/24 09:00:10;;;;;;;42.60;25.05;;;;;;;6.72;66.82;94585.22;4153247;28;20058;-76
2022/12/24 09:02:12;;;;;;;40.03;22.85;;;;;;;6.82;65.87;94585.22;4158007;28;20077;-81
2022/12/24 09:04:14;;;;;;;32.75;21.50;;;;;;;6.93;65.22;94579.03;4167419;28;20053;-83
2022/12/24 09:06:16;;;;;;;32.95;21.17;;;;;;;7.00;65.86;94576.69;4159522;28;20065;-81
2022/12/24 09:08:19;;;;;;;41.92;24.48;;;;;;;7.13;65.68;94566.78;4146418;28;20076;-86
2022/12/24 09:10:21;;;;;;;38.83;24.20;;;;;;;7.20;65.47;94562.63;4168098;28;20057;-80
2022/12/24 09:12:23;;;;;;;39.53;24.88;;;;;;;7.31;65.01;94559.03;4170807;28;20075;-82
2022/12/24 09:14:25;;;;;;;45.83;29.42;;;;;;;7.39;64.63;94559.97;4161297;28;20402;-84
2022/12/24 09:16:27;;;;;;;45.78;29.40;;;;;;;7.51;63.93;94567.63;4173415;28;20053;-83
2022/12/24 09:18:29;;;;;;;55.28;30.33;;;;;;;7.56;63.79;94568.00;4181331;28;20057;-84
2022/12/24 09:20:31;;;;;;;51.28;32.60;;;;;;;7.53;63.86;94557.88;4160747;28;20061;-84
2022/12/24 09:22:35;;;;;;;53.88;33.78;;;;;;;7.55;64.11;94558.53;4149651;28;20049;-84
2022/12/24 09:24:37;;;;;;;58.10;33.88;;;;;;;7.55;63.44;94550.69;4152797;28;20061;-83
2022/12/24 09:26:40;;;;;;;55.40;32.83;;;;;;;7.65;63.64;94556.69;4173780;28;20396;-78
2022/12/24 09:28:43;;;;;;;59.67;35.22;;;;;;;7.49;64.49;94551.31;4173196;28;20053;-88
2022/12/24 09:30:54;;;;;;;63.50;35.78;;;;;;;7.32;64.86;94553.69;4165497;28;20057;-78
2022/12/24 09:32:56;;;;;;;58.63;33.95;;;;;;;7.16;65.62;94556.91;4178860;28;20060;-82
2022/12/24 09:34:58;;;;;;;53.90;32.60;;;;;;;7.10;64.97;94551.44;4173805;28;20110;-86
2022/12/24 09:37:01;;;;;;;62.72;35.58;;;;;;;7.06;65.61;94547.47;4156077;28;20046;-87
2022/12/24 09:39:04;;;;;;;61.42;36.08;;;;;;;6.75;66.31;94555.47;4138657;28;20064;-84
2022/12/24 09:41:13;;;;;;;63.33;36.05;;;;;;;6.83;67.33;94557.38;4183228;28;20061;-80
2022/12/24 09:43:19;;;;;;;54.10;34.05;;;;;;;6.86;67.26;94555.34;4153085;28;20046;-75
2022/12/24 09:45:25;;;;;;;59.80;36.72;;;;;;;6.91;66.92;94547.91;4158695;28;20045;-79